Main page
METAR-TAF:

METAR-TAF

Airports :

Maramures Airport

Baia Mare, Romania

latitude: 47-40N, longitude: 023-35E, elevation: 218 m

Current weather observation

The report was made 1 hour and 1 minutes ago, at 23:30 UTC
Wind 4 kt from the East
Temperature 18°C
Humidity 77%
Pressure 1017 hPa
Visibility 10 km or more

METAR: LRBM 232330Z AUTO 08004KT 9999 FEW080/// SCT220/// 18/14 Q1017 RERA

Time: 03:31 (00:31 UTC)

Forecast

The report was made 10 hours and 31 minutes ago, at 14:00 UTC
Forecast valid from 23 at 15 UTC to 23 at 24 UTC
Wind 4 kt from variable directions
Visibility 10 km or more
Few clouds at a height of 4000 ft, Cumulonimbus.
Probability 30% :
Temporary
from 23 at 15 UTC to 23 at 16 UTC
Wind 16 kt from variable directions
thunderstorm, light rain
Becoming
from 23 at 16 UTC to 23 at 18 UTC

TAF: LRBM 231400Z 2315/2324 VRB04KT 9999 FEW040CB PROB30 TEMPO 2315/2316 VRB16KT -TSRA BECMG 2316/2318 NSC

Weather observations and forecasts of more than 4000 airports (METAR and TAF reports).

The available stations are represented by yellow and red dots on the map.

Hover mouse over dot to see the name of the station.

Then click to see weather observations and forecasts.

To change the map : click on the green buttons with a black cross to zoom in, on the green button with a dash to zoom out, or on the green arrows for adjacent maps.


METAR-TAF: